Time;durP1;ratioP1;P1;durP2;ratioP2;P2;SDS_P1;SDS_P2;PMS_P1;PMS_P2;Temp;Humidity;BMP_temperature;BMP_pressure;BME280_temperature;BME280_humidity;BME280_pressure;Samples;Min_cycle;Max_cycle;Signal;HPM_P1;HPM_P2
2024/01/20 00:02:23;;;;;;;8.85;4.22;;;;;;;;;;4961378;28;94904;-80
2024/01/20 00:04:50;;;;;;;8.48;3.80;;;;;;;;;;4961157;28;92143;-80
2024/01/20 00:07:17;;;;;;;7.95;4.03;;;;;;;;;;4964982;28;92745;-80
2024/01/20 00:09:44;;;;;;;9.15;4.20;;;;;;;;;;4980813;28;93466;-80
2024/01/20 00:12:16;;;;;;;9.57;4.03;;;;;;;;;;4981095;28;92093;-79
2024/01/20 00:14:43;;;;;;;9.15;4.15;;;;;;;;;;4969648;28;92515;-80
2024/01/20 00:17:10;;;;;;;7.57;3.88;;;;;;;;;;4943671;28;93124;-81
2024/01/20 00:19:50;;;;;;;;;;;;;;;;;;4962572;28;91414;-80
2024/01/20 00:22:18;;;;;;;8.70;3.95;;;;;;;;;;4961494;28;97136;-81
2024/01/20 00:24:45;;;;;;;10.82;4.60;;;;;;;;;;4964576;28;94542;-81
2024/01/20 00:27:12;;;;;;;12.15;4.55;;;;;;;;;;4963104;28;96437;-81
2024/01/20 00:29:39;;;;;;;9.10;4.25;;;;;;;;;;4964423;28;94017;-81
2024/01/20 00:32:05;;;;;;;9.48;4.20;;;;;;;;;;4964514;28;92080;-81
2024/01/20 00:34:32;;;;;;;9.30;4.10;;;;;;;;;;4961071;28;92721;-81
2024/01/20 00:37:18;;;;;;;10.35;4.22;;;;;;;;;;4963217;28;92129;-81
2024/01/20 00:39:45;;;;;;;10.70;4.75;;;;;;;;;;4962819;28;92198;-83
2024/01/20 00:42:12;;;;;;;9.65;4.10;;;;;;;;;;4946784;28;95695;-81
2024/01/20 00:44:39;;;;;;;9.90;4.63;;;;;;;;;;4965359;28;92002;-80
2024/01/20 00:47:06;;;;;;;9.18;4.20;;;;;;;;;;4962802;28;92542;-79
2024/01/20 00:49:33;;;;;;;9.13;4.13;;;;;;;;;;4946187;28;94942;-81
2024/01/20 00:52:00;;;;;;;11.50;4.13;;;;;;;;;;4963276;28;95214;-81
2024/01/20 00:54:26;;;;;;;11.75;4.70;;;;;;;;;;4963416;28;95510;-81
2024/01/20 00:56:54;;;;;;;9.23;4.50;;;;;;;;;;4969668;28;94222;-79
2024/01/20 00:59:20;;;;;;;8.68;4.20;;;;;;;;;;4962618;28;92479;-80
2024/01/20 01:01:47;;;;;;;10.15;4.93;;;;;;;;;;4962875;28;92541;-80
2024/01/20 01:04:14;;;;;;;9.27;4.90;;;;;;;;;;4963874;28;99750;-80
2024/01/20 01:06:41;;;;;;;10.60;5.03;;;;;;;;;;4965397;28;92158;-80
2024/01/20 01:09:08;;;;;;;9.35;5.30;;;;;;;;;;4982516;28;92017;-80
2024/01/20 01:11:34;;;;;;;8.93;4.97;;;;;;;;;;4951935;28;92254;-79
2024/01/20 01:14:01;;;;;;;9.75;4.97;;;;;;;;;;4963967;28;92327;-79
2024/01/20 01:16:27;;;;;;;11.13;5.00;;;;;;;;;;4961178;28;95979;-81
2024/01/20 01:18:54;;;;;;;10.57;5.28;;;;;;;;;;4958127;28;92569;-78
2024/01/20 01:21:20;;;;;;;9.60;5.30;;;;;;;;;;4962041;28;92830;-79
2024/01/20 01:23:47;;;;;;;9.52;5.03;;;;;;;;;;4963403;28;92738;-79
2024/01/20 01:26:14;;;;;;;10.75;4.85;;;;;;;;;;4963124;28;92391;-80
2024/01/20 01:28:41;;;;;;;10.73;4.97;;;;;;;;;;4947958;28;94867;-80
2024/01/20 01:31:08;;;;;;;11.00;4.97;;;;;;;;;;4945831;28;92169;-80
2024/01/20 01:33:36;;;;;;;10.10;5.22;;;;;;;;;;4947245;28;94185;-79
2024/01/20 01:36:03;;;;;;;10.27;5.35;;;;;;;;;;4955493;28;92680;-79
2024/01/20 01:38:30;;;;;;;10.18;5.25;;;;;;;;;;4963102;28;92107;-80
2024/01/20 01:40:57;;;;;;;10.35;5.15;;;;;;;;;;4961267;28;94636;-79
2024/01/20 01:43:25;;;;;;;10.52;5.28;;;;;;;;;;4963341;28;92520;-80
2024/01/20 01:45:51;;;;;;;12.15;5.07;;;;;;;;;;4962108;28;92125;-79
2024/01/20 01:48:18;;;;;;;10.63;5.57;;;;;;;;;;4961909;28;95169;-80
2024/01/20 01:50:45;;;;;;;10.57;5.70;;;;;;;;;;4965508;28;93931;-80
2024/01/20 01:53:12;;;;;;;10.07;5.20;;;;;;;;;;4946107;28;93593;-79
2024/01/20 01:55:39;;;;;;;13.63;4.97;;;;;;;;;;4968935;28;92417;-81
2024/01/20 01:58:06;;;;;;;11.02;5.38;;;;;;;;;;4982278;28;91528;-81
2024/01/20 02:00:33;;;;;;;12.02;5.63;;;;;;;;;;4981998;28;92420;-82
2024/01/20 02:02:59;;;;;;;11.80;5.43;;;;;;;;;;4981493;28;95177;-82
2024/01/20 02:05:26;;;;;;;10.77;5.10;;;;;;;;;;4980043;28;94521;-82
2024/01/20 02:07:53;;;;;;;10.15;5.35;;;;;;;;;;4958729;28;97525;-80
2024/01/20 02:10:21;;;;;;;10.32;5.43;;;;;;;;;;4981146;28;95326;-80
2024/01/20 02:12:47;;;;;;;11.25;5.55;;;;;;;;;;4984330;28;92417;-82
2024/01/20 02:15:14;;;;;;;12.25;5.20;;;;;;;;;;4958377;28;94931;-80
2024/01/20 02:17:51;;;;;;;10.82;5.40;;;;;;;;;;4942175;28;92285;-81
2024/01/20 02:20:19;;;;;;;10.35;5.38;;;;;;;;;;4943189;28;95183;-80
2024/01/20 02:22:45;;;;;;;11.13;5.72;;;;;;;;;;4961880;28;91724;-82
2024/01/20 02:25:12;;;;;;;10.75;5.20;;;;;;;;;;4962081;28;92192;-82
2024/01/20 02:27:38;;;;;;;11.43;5.55;;;;;;;;;;4961958;28;93990;-81
2024/01/20 02:30:05;;;;;;;12.52;5.40;;;;;;;;;;4960407;28;96902;-81
2024/01/20 02:32:32;;;;;;;11.32;5.70;;;;;;;;;;4960087;28;92244;-83
2024/01/20 02:34:58;;;;;;;11.60;5.50;;;;;;;;;;4964727;28;92555;-82
2024/01/20 02:37:25;;;;;;;12.15;5.57;;;;;;;;;;4961850;28;92551;-81
2024/01/20 02:39:52;;;;;;;10.85;5.53;;;;;;;;;;4961769;28;93830;-82
2024/01/20 02:42:18;;;;;;;11.68;5.50;;;;;;;;;;4962281;28;92789;-82
2024/01/20 02:44:45;;;;;;;11.15;5.65;;;;;;;;;;4962820;28;92557;-82
2024/01/20 02:47:11;;;;;;;11.52;5.53;;;;;;;;;;4961066;28;92446;-81
2024/01/20 02:49:38;;;;;;;10.70;5.22;;;;;;;;;;4962059;28;92729;-82
2024/01/20 02:52:05;;;;;;;10.70;5.72;;;;;;;;;;4961359;28;92218;-81
2024/01/20 02:54:31;;;;;;;11.13;5.70;;;;;;;;;;4962300;28;94830;-81
2024/01/20 02:56:58;;;;;;;11.35;5.45;;;;;;;;;;4979505;28;92174;-80
2024/01/20 02:59:25;;;;;;;12.05;6.22;;;;;;;;;;4981350;28;92900;-82
2024/01/20 03:01:51;;;;;;;11.98;6.10;;;;;;;;;;4980168;28;95105;-82
2024/01/20 03:04:18;;;;;;;11.07;5.57;;;;;;;;;;4961269;28;92055;-79
2024/01/20 03:06:44;;;;;;;13.30;6.63;;;;;;;;;;4957429;28;92461;-79
2024/01/20 03:09:14;;;;;;;11.82;5.70;;;;;;;;;;4976177;28;95637;-81
2024/01/20 03:11:44;;;;;;;11.02;5.35;;;;;;;;;;4944945;28;91663;-80
2024/01/20 03:14:11;;;;;;;12.40;5.82;;;;;;;;;;4962976;28;91984;-80
2024/01/20 03:16:38;;;;;;;11.30;5.55;;;;;;;;;;4946168;28;95362;-79
2024/01/20 03:19:06;;;;;;;11.15;5.07;;;;;;;;;;4961006;28;94598;-81
2024/01/20 03:21:33;;;;;;;11.18;5.82;;;;;;;;;;4961143;28;93498;-80
2024/01/20 03:24:00;;;;;;;10.35;5.43;;;;;;;;;;4960914;28;92186;-80
2024/01/20 03:26:27;;;;;;;10.30;5.32;;;;;;;;;;4959642;28;95357;-80
2024/01/20 03:28:54;;;;;;;10.45;5.22;;;;;;;;;;4961532;28;92554;-79
2024/01/20 03:31:20;;;;;;;11.68;5.28;;;;;;;;;;4961027;28;92114;-80
2024/01/20 03:33:47;;;;;;;10.63;5.10;;;;;;;;;;4944405;28;95247;-79
2024/01/20 03:36:14;;;;;;;11.43;5.60;;;;;;;;;;4956179;28;91316;-80
2024/01/20 03:38:40;;;;;;;10.63;5.38;;;;;;;;;;4964928;28;92567;-79
2024/01/20 03:41:07;;;;;;;9.95;5.13;;;;;;;;;;4961579;28;92793;-81
2024/01/20 03:43:33;;;;;;;13.73;4.95;;;;;;;;;;4958959;28;94794;-79
2024/01/20 03:46:00;;;;;;;12.30;5.60;;;;;;;;;;4961772;28;95230;-80
2024/01/20 03:48:26;;;;;;;10.43;5.20;;;;;;;;;;4961565;28;93487;-81
2024/01/20 03:50:53;;;;;;;15.30;4.85;;;;;;;;;;4962176;28;92945;-80
2024/01/20 03:53:20;;;;;;;11.60;5.57;;;;;;;;;;4961989;28;92702;-81
2024/01/20 03:55:46;;;;;;;10.80;5.30;;;;;;;;;;4967615;28;93207;-81
2024/01/20 03:58:13;;;;;;;10.77;5.20;;;;;;;;;;4980227;28;92451;-80
2024/01/20 04:00:39;;;;;;;10.85;5.07;;;;;;;;;;4952621;28;95223;-79
2024/01/20 04:03:06;;;;;;;12.45;5.95;;;;;;;;;;4947664;28;92542;-80
2024/01/20 04:05:32;;;;;;;10.93;5.50;;;;;;;;;;4963387;28;95043;-81
2024/01/20 04:07:59;;;;;;;10.98;5.43;;;;;;;;;;4971095;28;95968;-81
2024/01/20 04:10:25;;;;;;;12.43;5.57;;;;;;;;;;4983663;28;92061;-80
2024/01/20 04:12:52;;;;;;;10.43;5.20;;;;;;;;;;4965252;28;94653;-80
2024/01/20 04:15:18;;;;;;;10.80;4.93;;;;;;;;;;4946952;28;95651;-80
2024/01/20 04:17:45;;;;;;;9.85;4.97;;;;;;;;;;4964203;28;92355;-80
2024/01/20 04:20:12;;;;;;;11.27;5.18;;;;;;;;;;4963930;28;92323;-80
2024/01/20 04:22:38;;;;;;;12.27;5.72;;;;;;;;;;4965587;28;95706;-80
2024/01/20 04:25:05;;;;;;;11.07;5.22;;;;;;;;;;4964172;28;94707;-81
2024/01/20 04:27:33;;;;;;;11.20;5.07;;;;;;;;;;4964841;28;93045;-81
2024/01/20 04:30:00;;;;;;;11.45;5.50;;;;;;;;;;4963880;28;92899;-81
2024/01/20 04:32:27;;;;;;;11.98;5.63;;;;;;;;;;4962588;28;95132;-81
2024/01/20 04:34:53;;;;;;;11.57;5.35;;;;;;;;;;4957358;28;94849;-81
2024/01/20 04:37:20;;;;;;;11.95;5.75;;;;;;;;;;4958725;28;92684;-80
2024/01/20 04:39:46;;;;;;;11.45;5.20;;;;;;;;;;4962203;28;92467;-80
2024/01/20 04:42:13;;;;;;;11.48;5.03;;;;;;;;;;4963889;28;92879;-80
2024/01/20 04:44:39;;;;;;;11.90;5.35;;;;;;;;;;4949293;28;92310;-81
2024/01/20 04:47:06;;;;;;;11.07;5.18;;;;;;;;;;4962943;28;93316;-81
2024/01/20 04:49:32;;;;;;;12.07;5.07;;;;;;;;;;4963683;28;91692;-82
2024/01/20 04:52:01;;;;;;;12.95;5.45;;;;;;;;;;4963504;28;92615;-80
2024/01/20 04:54:28;;;;;;;12.10;5.00;;;;;;;;;;4945591;28;92933;-79
2024/01/20 04:56:56;;;;;;;10.20;4.90;;;;;;;;;;4959858;28;95020;-80
2024/01/20 04:59:23;;;;;;;10.30;5.03;;;;;;;;;;4982403;28;95087;-80
2024/01/20 05:01:52;;;;;;;12.10;5.20;;;;;;;;;;4978225;28;94943;-80
2024/01/20 05:04:19;;;;;;;9.13;4.60;;;;;;;;;;4965654;28;92583;-79
2024/01/20 05:06:45;;;;;;;10.80;5.00;;;;;;;;;;4963841;28;92411;-80
2024/01/20 05:09:13;;;;;;;10.60;5.20;;;;;;;;;;4980712;28;92014;-80
2024/01/20 05:11:40;;;;;;;10.18;4.70;;;;;;;;;;4946680;28;94736;-79
2024/01/20 05:14:07;;;;;;;10.73;4.80;;;;;;;;;;4964441;28;91646;-80
2024/01/20 05:16:34;;;;;;;11.10;5.40;;;;;;;;;;4963183;28;92510;-81
2024/01/20 05:19:00;;;;;;;9.77;4.70;;;;;;;;;;4964679;28;93235;-79
2024/01/20 05:21:27;;;;;;;10.57;5.03;;;;;;;;;;4961851;28;94535;-79
2024/01/20 05:23:54;;;;;;;11.63;5.15;;;;;;;;;;4946074;28;92261;-79
2024/01/20 05:26:21;;;;;;;10.10;4.90;;;;;;;;;;4966718;28;92492;-80
2024/01/20 05:28:47;;;;;;;10.40;4.90;;;;;;;;;;4963810;28;92182;-78
2024/01/20 05:31:14;;;;;;;10.13;4.72;;;;;;;;;;4962373;28;94677;-79
2024/01/20 05:33:41;;;;;;;9.90;4.50;;;;;;;;;;4963961;28;93023;-80
2024/01/20 05:36:10;;;;;;;10.50;5.20;;;;;;;;;;4951919;28;92163;-79
2024/01/20 05:38:36;;;;;;;11.07;4.82;;;;;;;;;;4956303;28;92822;-79
2024/01/20 05:41:03;;;;;;;10.95;4.97;;;;;;;;;;4961796;28;94563;-80
2024/01/20 05:43:30;;;;;;;10.52;5.20;;;;;;;;;;4962473;28;92339;-79
2024/01/20 05:45:56;;;;;;;9.70;5.00;;;;;;;;;;4960395;28;94870;-80
2024/01/20 05:48:23;;;;;;;11.98;5.32;;;;;;;;;;4964907;28;92308;-80
2024/01/20 05:50:49;;;;;;;11.25;5.07;;;;;;;;;;4961941;28;96751;-80
2024/01/20 05:53:18;;;;;;;10.60;4.80;;;;;;;;;;4962670;28;92795;-80
2024/01/20 05:55:44;;;;;;;10.00;4.88;;;;;;;;;;4968520;28;92333;-80
2024/01/20 05:58:11;;;;;;;12.30;5.35;;;;;;;;;;4978431;28;94915;-80
2024/01/20 06:00:37;;;;;;;11.27;5.40;;;;;;;;;;4962208;28;92820;-81
2024/01/20 06:03:04;;;;;;;10.73;5.13;;;;;;;;;;4962844;28;91337;-80
2024/01/20 06:05:31;;;;;;;11.15;5.18;;;;;;;;;;4962694;28;92217;-80
2024/01/20 06:07:57;;;;;;;10.02;4.95;;;;;;;;;;4971493;28;95673;-83
2024/01/20 06:10:24;;;;;;;11.13;5.18;;;;;;;;;;4955712;28;94520;-81
2024/01/20 06:12:50;;;;;;;9.35;4.60;;;;;;;;;;4962831;28;92991;-81
2024/01/20 06:15:17;;;;;;;10.43;4.93;;;;;;;;;;4962853;28;93911;-81
2024/01/20 06:17:44;;;;;;;11.40;5.18;;;;;;;;;;4963223;28;95080;-82
2024/01/20 06:20:10;;;;;;;9.80;4.72;;;;;;;;;;4962112;28;92682;-81
2024/01/20 06:22:39;;;;;;;10.80;4.97;;;;;;;;;;4962016;28;92524;-81
2024/01/20 06:25:06;;;;;;;10.80;5.07;;;;;;;;;;4961678;28;94185;-81
2024/01/20 06:27:32;;;;;;;9.63;4.78;;;;;;;;;;4945872;28;94471;-81
2024/01/20 06:29:59;;;;;;;10.75;5.05;;;;;;;;;;4961941;28;92316;-81
2024/01/20 06:32:26;;;;;;;9.98;4.80;;;;;;;;;;4963579;28;92451;-81
2024/01/20 06:34:52;;;;;;;9.68;4.82;;;;;;;;;;4942993;28;94597;-81
2024/01/20 06:37:19;;;;;;;12.15;4.45;;;;;;;;;;4962397;28;94872;-80
2024/01/20 06:39:46;;;;;;;10.18;4.55;;;;;;;;;;4962762;28;92740;-79
2024/01/20 06:42:13;;;;;;;10.77;4.55;;;;;;;;;;4961674;28;92446;-80
2024/01/20 06:44:40;;;;;;;9.38;4.30;;;;;;;;;;4962481;28;92824;-80
2024/01/20 06:47:09;;;;;;;11.00;4.70;;;;;;;;;;4961764;28;92719;-78
2024/01/20 06:49:39;;;;;;;10.70;5.00;;;;;;;;;;4961603;28;92170;-81
2024/01/20 06:52:06;;;;;;;10.80;4.68;;;;;;;;;;4966187;28;92596;-79
2024/01/20 06:54:33;;;;;;;9.75;4.53;;;;;;;;;;4961670;28;92159;-79
2024/01/20 06:57:00;;;;;;;10.43;4.93;;;;;;;;;;4977651;28;92848;-80
2024/01/20 06:59:26;;;;;;;12.05;4.60;;;;;;;;;;4963798;28;98274;-79
2024/01/20 07:01:53;;;;;;;9.75;4.43;;;;;;;;;;4960169;28;93511;-80
2024/01/20 07:04:19;;;;;;;11.30;4.93;;;;;;;;;;4961385;28;92267;-80
2024/01/20 07:06:46;;;;;;;10.73;4.80;;;;;;;;;;4959425;28;92722;-79
2024/01/20 07:09:13;;;;;;;10.52;4.63;;;;;;;;;;4979577;28;92143;-83
2024/01/20 07:11:40;;;;;;;9.20;4.25;;;;;;;;;;4983595;28;92504;-83
2024/01/20 07:14:06;;;;;;;8.88;4.10;;;;;;;;;;4984466;28;95473;-83
2024/01/20 07:16:33;;;;;;;10.65;4.28;;;;;;;;;;4972137;28;95093;-84
2024/01/20 07:18:59;;;;;;;9.00;4.22;;;;;;;;;;4943005;28;92697;-84
2024/01/20 07:21:26;;;;;;;9.65;4.57;;;;;;;;;;4941754;28;91954;-83
2024/01/20 07:23:53;;;;;;;10.43;4.38;;;;;;;;;;4940634;28;95017;-83
2024/01/20 07:26:20;;;;;;;10.60;4.40;;;;;;;;;;4942269;28;93002;-83
2024/01/20 07:28:46;;;;;;;9.90;4.40;;;;;;;;;;4943059;28;92681;-83
2024/01/20 07:31:13;;;;;;;11.45;5.13;;;;;;;;;;4956464;28;92503;-83
2024/01/20 07:33:40;;;;;;;10.63;4.70;;;;;;;;;;4962795;28;95101;-83
2024/01/20 07:36:08;;;;;;;10.98;4.90;;;;;;;;;;4962980;28;92380;-84
2024/01/20 07:38:35;;;;;;;9.55;4.28;;;;;;;;;;4966819;28;93027;-85
2024/01/20 07:41:02;;;;;;;10.02;4.38;;;;;;;;;;4968413;28;91589;-85
2024/01/20 07:43:28;;;;;;;9.63;4.60;;;;;;;;;;4968784;28;92305;-85
2024/01/20 07:45:56;;;;;;;11.30;4.65;;;;;;;;;;4962155;28;94728;-82
2024/01/20 07:48:23;;;;;;;10.15;4.43;;;;;;;;;;4963351;28;94808;-84
2024/01/20 07:50:50;;;;;;;10.80;4.47;;;;;;;;;;4961141;28;101645;-84
2024/01/20 07:53:17;;;;;;;9.85;4.13;;;;;;;;;;4961913;28;93620;-85
2024/01/20 07:55:44;;;;;;;11.35;4.60;;;;;;;;;;4973233;28;92352;-84
2024/01/20 07:58:10;;;;;;;9.40;4.45;;;;;;;;;;4984286;28;94955;-84
2024/01/20 08:00:37;;;;;;;11.15;4.63;;;;;;;;;;4964233;28;92128;-84
2024/01/20 08:03:04;;;;;;;10.15;4.32;;;;;;;;;;4965039;28;92736;-85
2024/01/20 08:05:32;;;;;;;11.25;4.68;;;;;;;;;;4967916;28;92252;-82
2024/01/20 08:08:01;;;;;;;10.07;4.40;;;;;;;;;;4975536;28;92167;-83
2024/01/20 08:10:27;;;;;;;8.93;4.10;;;;;;;;;;4982600;28;95343;-82
2024/01/20 08:12:55;;;;;;;11.15;4.45;;;;;;;;;;4975799;28;94749;-85
2024/01/20 08:15:23;;;;;;;10.55;4.40;;;;;;;;;;4966426;28;92570;-86
2024/01/20 08:17:50;;;;;;;9.38;3.92;;;;;;;;;;4970337;28;92794;-87
2024/01/20 08:20:16;;;;;;;8.95;4.35;;;;;;;;;;4973241;28;95149;-88
2024/01/20 08:22:43;;;;;;;10.40;4.80;;;;;;;;;;4969020;28;94656;-85
2024/01/20 08:25:10;;;;;;;15.70;4.40;;;;;;;;;;4964866;28;94964;-84
2024/01/20 08:27:37;;;;;;;10.85;4.32;;;;;;;;;;4946480;28;92188;-83
2024/01/20 08:30:03;;;;;;;14.23;4.63;;;;;;;;;;4964164;28;92955;-80
2024/01/20 08:32:30;;;;;;;10.85;4.25;;;;;;;;;;4964081;28;92992;-82
2024/01/20 08:34:57;;;;;;;11.07;4.38;;;;;;;;;;4962447;28;92241;-83
2024/01/20 08:37:26;;;;;;;14.50;4.88;;;;;;;;;;4929129;28;94770;-80
2024/01/20 08:39:53;;;;;;;10.20;4.47;;;;;;;;;;4963167;28;92406;-89
2024/01/20 08:42:19;;;;;;;10.38;4.15;;;;;;;;;;4948345;28;92175;-86
2024/01/20 08:44:46;;;;;;;17.63;4.50;;;;;;;;;;4963575;28;93030;-81
2024/01/20 08:47:12;;;;;;;13.13;4.45;;;;;;;;;;4963257;28;92776;-81
2024/01/20 08:49:39;;;;;;;9.55;4.20;;;;;;;;;;4963188;28;95378;-81
2024/01/20 08:52:06;;;;;;;11.43;4.00;;;;;;;;;;4961849;28;95691;-81
2024/01/20 08:54:32;;;;;;;8.50;4.07;;;;;;;;;;4945645;28;91465;-81
2024/01/20 08:56:59;;;;;;;9.02;4.18;;;;;;;;;;4980048;28;92111;-81
2024/01/20 08:59:25;;;;;;;9.07;4.43;;;;;;;;;;4970879;28;92719;-81
2024/01/20 09:01:52;;;;;;;9.50;4.05;;;;;;;;;;4963567;28;94754;-81
2024/01/20 09:04:18;;;;;;;8.07;3.90;;;;;;;;;;4963585;28;92798;-81
2024/01/20 09:06:45;;;;;;;8.90;4.10;;;;;;;;;;4945512;28;92476;-81
2024/01/20 09:09:12;;;;;;;8.73;4.40;;;;;;;;;;4969534;28;92741;-81
2024/01/20 09:11:39;;;;;;;8.77;3.95;;;;;;;;;;4963590;28;93198;-80
2024/01/20 09:14:05;;;;;;;10.55;4.50;;;;;;;;;;4962887;28;92148;-81
2024/01/20 09:16:32;;;;;;;11.18;5.03;;;;;;;;;;4962862;28;93389;-81
2024/01/20 09:18:58;;;;;;;9.13;4.78;;;;;;;;;;4962399;28;92053;-80
2024/01/20 09:21:25;;;;;;;8.30;4.10;;;;;;;;;;4962727;28;92516;-82
2024/01/20 09:23:52;;;;;;;9.15;4.07;;;;;;;;;;4966967;28;94353;-83
2024/01/20 09:26:18;;;;;;;9.18;4.22;;;;;;;;;;4945888;28;94531;-80
2024/01/20 09:28:45;;;;;;;20.50;4.75;;;;;;;;;;4962779;28;94352;-83
2024/01/20 09:31:11;;;;;;;19.50;5.20;;;;;;;;;;4961955;28;95002;-83
2024/01/20 09:33:38;;;;;;;15.35;4.40;;;;;;;;;;4964922;28;92857;-86
2024/01/20 09:36:05;;;;;;;13.38;4.60;;;;;;;;;;4965386;28;92620;-83
2024/01/20 09:38:32;;;;;;;19.23;5.20;;;;;;;;;;4961793;28;92574;-81
2024/01/20 09:40:59;;;;;;;13.07;4.72;;;;;;;;;;4964502;28;92065;-83
2024/01/20 09:43:25;;;;;;;14.95;4.78;;;;;;;;;;4952382;28;93706;-83
2024/01/20 09:45:52;;;;;;;13.07;4.32;;;;;;;;;;4966902;28;95236;-84
2024/01/20 09:48:19;;;;;;;14.02;4.97;;;;;;;;;;4963844;28;94273;-84
2024/01/20 09:50:47;;;;;;;12.63;4.50;;;;;;;;;;4961304;28;98029;-83
2024/01/20 09:53:14;;;;;;;10.60;4.68;;;;;;;;;;4965265;28;92374;-85
2024/01/20 09:55:42;;;;;;;10.93;4.90;;;;;;;;;;4967287;28;92466;-91
2024/01/20 09:58:12;;;;;;;12.18;4.75;;;;;;;;;;4962397;28;93942;-81
2024/01/20 10:00:42;;;;;;;10.60;4.68;;;;;;;;;;4960661;28;92710;-82
2024/01/20 10:03:10;;;;;;;9.75;4.85;;;;;;;;;;4962724;28;93352;-82
2024/01/20 10:05:47;;;;;;;9.30;4.93;;;;;;;;;;4965455;28;95545;-93
2024/01/20 10:08:18;;;;;;;10.18;4.47;;;;;;;;;;4973192;28;91515;-94
2024/01/20 10:10:51;;;;;;;10.00;4.30;;;;;;;;;;4966181;28;92132;-95
2024/01/20 10:13:21;;;;;;;10.02;4.07;;;;;;;;;;4965716;28;92483;-90
2024/01/20 10:15:48;;;;;;;10.05;4.30;;;;;;;;;;4962876;28;95364;-90
2024/01/20 10:18:14;;;;;;;9.75;4.50;;;;;;;;;;4966860;28;92142;-84
2024/01/20 10:20:41;;;;;;;10.07;4.72;;;;;;;;;;4963158;28;92064;-85
2024/01/20 10:23:08;;;;;;;10.30;4.47;;;;;;;;;;4963353;28;92513;-86
2024/01/20 10:25:35;;;;;;;8.60;4.50;;;;;;;;;;4961964;28;93095;-84
2024/01/20 10:28:02;;;;;;;10.77;4.90;;;;;;;;;;4962110;28;92406;-85
2024/01/20 10:30:29;;;;;;;9.38;4.55;;;;;;;;;;4964476;28;92451;-85
2024/01/20 10:32:58;;;;;;;10.10;4.88;;;;;;;;;;4946208;28;91601;-85
2024/01/20 10:35:35;;;;;;;;;;;;;;;;;;4953655;28;92364;-85
2024/01/20 10:38:04;;;;;;;11.32;4.60;;;;;;;;;;4946266;28;94957;-85
2024/01/20 10:40:31;;;;;;;9.80;4.70;;;;;;;;;;4958279;28;94793;-84
2024/01/20 10:43:03;;;;;;;9.88;4.55;;;;;;;;;;4962763;28;94742;-84
2024/01/20 10:45:33;;;;;;;8.32;4.55;;;;;;;;;;4963402;28;93548;-84
2024/01/20 10:48:04;;;;;;;8.63;4.47;;;;;;;;;;4964010;28;92477;-85
2024/01/20 10:50:35;;;;;;;9.30;4.80;;;;;;;;;;4959675;28;100824;-85
2024/01/20 10:53:02;;;;;;;8.98;4.53;;;;;;;;;;4948928;28;95661;-83
2024/01/20 10:55:29;;;;;;;9.65;4.47;;;;;;;;;;4966711;28;93293;-85
2024/01/20 10:57:57;;;;;;;8.68;4.50;;;;;;;;;;4965615;28;93858;-84
2024/01/20 11:00:24;;;;;;;8.32;4.40;;;;;;;;;;4983571;28;92242;-85
2024/01/20 11:02:50;;;;;;;7.88;4.18;;;;;;;;;;4947075;28;98690;-85
2024/01/20 11:05:18;;;;;;;9.23;4.10;;;;;;;;;;4960611;28;97249;-85
2024/01/20 11:07:54;;;;;;;7.78;4.20;;;;;;;;;;4962177;28;92487;-85
2024/01/20 11:10:22;;;;;;;8.98;4.30;;;;;;;;;;4962293;28;92468;-85
2024/01/20 11:12:57;;;;;;;8.63;4.30;;;;;;;;;;4963802;28;95417;-85
2024/01/20 11:15:27;;;;;;;9.18;4.50;;;;;;;;;;4961815;28;95134;-85
2024/01/20 11:17:54;;;;;;;8.35;3.95;;;;;;;;;;4977169;28;93082;-86
2024/01/20 11:20:21;;;;;;;8.05;4.05;;;;;;;;;;4960115;28;92683;-81
2024/01/20 11:22:48;;;;;;;8.90;4.60;;;;;;;;;;4947482;28;95278;-83
2024/01/20 11:25:14;;;;;;;10.82;4.80;;;;;;;;;;4980456;28;92882;-82
2024/01/20 11:27:47;;;;;;;8.57;4.50;;;;;;;;;;4981154;28;92322;-83
2024/01/20 11:30:24;;;;;;;9.25;4.72;;;;;;;;;;4966601;28;94918;-85
2024/01/20 11:32:51;;;;;;;9.55;5.03;;;;;;;;;;4959764;28;99230;-83
2024/01/20 11:35:18;;;;;;;8.98;4.05;;;;;;;;;;4968562;28;92333;-82
2024/01/20 11:37:44;;;;;;;9.40;4.63;;;;;;;;;;4959490;28;94985;-84
2024/01/20 11:40:11;;;;;;;8.07;3.97;;;;;;;;;;4961857;28;92995;-84
2024/01/20 11:42:38;;;;;;;7.75;3.72;;;;;;;;;;4943622;28;94582;-93
2024/01/20 11:45:05;;;;;;;;;;;;;;;;;;4944719;28;95349;-82
2024/01/20 11:47:31;;;;;;;8.35;3.83;;;;;;;;;;4961503;28;91391;-83
2024/01/20 11:49:58;;;;;;;7.20;3.92;;;;;;;;;;4966302;28;92209;-89
2024/01/20 11:52:58;;;;;;;7.45;3.42;;;;;;;;;;4956309;28;94317;-90
2024/01/20 11:55:54;;;;;;;7.63;3.72;;;;;;;;;;4966279;28;94697;-89
2024/01/20 11:58:21;;;;;;;8.45;3.58;;;;;;;;;;4972923;28;97374;-85
2024/01/20 12:00:49;;;;;;;8.20;3.80;;;;;;;;;;4958768;28;92171;-87
2024/01/20 12:03:39;;;;;;;7.78;4.03;;;;;;;;;;4964601;28;92967;-87
2024/01/20 12:06:18;;;;;;;7.60;4.03;;;;;;;;;;4955504;28;94940;-89
2024/01/20 12:08:48;;;;;;;7.95;3.83;;;;;;;;;;4967914;28;92360;-89
2024/01/20 12:11:21;;;;;;;8.65;3.85;;;;;;;;;;4969845;28;94965;-87
2024/01/20 12:14:14;;;;;;;7.45;3.70;;;;;;;;;;4937878;28;94256;-88
2024/01/20 12:16:59;;;;;;;8.80;3.90;;;;;;;;;;4927220;28;92952;-91
2024/01/20 12:19:27;;;;;;;6.97;3.42;;;;;;;;;;4956405;28;93514;-88
2024/01/20 12:21:56;;;;;;;7.28;3.75;;;;;;;;;;4945676;28;96924;-86
2024/01/20 12:24:31;;;;;;;7.50;3.30;;;;;;;;;;4943235;28;97062;-87
2024/01/20 12:27:04;;;;;;;6.00;3.38;;;;;;;;;;4962624;28;95881;-90
2024/01/20 12:29:35;;;;;;;6.82;3.28;;;;;;;;;;4968503;28;92169;-90
2024/01/20 12:32:05;;;;;;;7.20;3.50;;;;;;;;;;4965503;28;95006;-88
2024/01/20 12:34:32;;;;;;;6.55;3.22;;;;;;;;;;4966205;28;93149;-87
2024/01/20 12:36:59;;;;;;;7.35;3.40;;;;;;;;;;4962415;28;92455;-88
2024/01/20 12:39:25;;;;;;;6.80;3.47;;;;;;;;;;4963119;28;92511;-87
2024/01/20 12:41:53;;;;;;;6.43;3.20;;;;;;;;;;4945587;28;93922;-87
2024/01/20 12:44:20;;;;;;;7.22;3.40;;;;;;;;;;4959762;28;92505;-91
2024/01/20 12:46:53;;;;;;;;;;;;;;;;;;4948016;28;101804;-88
2024/01/20 12:49:20;;;;;;;6.50;3.13;;;;;;;;;;4980445;28;92321;-88
2024/01/20 12:51:47;;;;;;;8.45;3.50;;;;;;;;;;4962856;28;95035;-87
2024/01/20 12:54:15;;;;;;;6.40;3.05;;;;;;;;;;4946379;28;95933;-89
2024/01/20 12:56:42;;;;;;;6.95;3.65;;;;;;;;;;4975986;28;92342;-86
2024/01/20 12:59:08;;;;;;;7.28;3.83;;;;;;;;;;4955325;28;95376;-87
2024/01/20 13:01:35;;;;;;;9.52;4.70;;;;;;;;;;4978784;28;94865;-87
2024/01/20 13:04:02;;;;;;;6.03;3.30;;;;;;;;;;4963502;28;93733;-84
2024/01/20 13:06:31;;;;;;;7.05;3.53;;;;;;;;;;4965721;28;92429;-85
2024/01/20 13:08:59;;;;;;;7.00;3.38;;;;;;;;;;4965565;28;92016;-85
2024/01/20 13:11:28;;;;;;;7.90;3.90;;;;;;;;;;4960814;28;94791;-84
2024/01/20 13:13:54;;;;;;;8.05;3.60;;;;;;;;;;4962375;28;95225;-87
2024/01/20 13:16:21;;;;;;;7.18;3.50;;;;;;;;;;4963000;28;92075;-84
2024/01/20 13:18:50;;;;;;;6.57;3.05;;;;;;;;;;4960770;28;92388;-84
2024/01/20 13:21:17;;;;;;;7.30;3.50;;;;;;;;;;4962386;28;92646;-83
2024/01/20 13:23:45;;;;;;;7.50;3.72;;;;;;;;;;4943051;28;92596;-84
2024/01/20 13:26:12;;;;;;;7.15;3.45;;;;;;;;;;4944675;28;94794;-84
2024/01/20 13:28:38;;;;;;;6.80;3.28;;;;;;;;;;4945124;28;91984;-85
2024/01/20 13:31:05;;;;;;;;;;;;;;;;;;4946915;28;93226;-85
2024/01/20 13:33:32;;;;;;;6.95;3.33;;;;;;;;;;4963912;28;113096;-85
2024/01/20 13:35:58;;;;;;;7.50;3.28;;;;;;;;;;4955398;28;94465;-84
2024/01/20 13:38:25;;;;;;;6.80;3.40;;;;;;;;;;4931360;28;97474;-85
2024/01/20 13:40:52;;;;;;;6.95;3.22;;;;;;;;;;4941560;28;94810;-85
2024/01/20 13:43:18;;;;;;;6.80;3.10;;;;;;;;;;4942026;28;92537;-85
2024/01/20 13:45:46;;;;;;;7.47;3.03;;;;;;;;;;4943017;28;92417;-85
2024/01/20 13:48:13;;;;;;;8.20;3.38;;;;;;;;;;4945165;28;92254;-86
2024/01/20 13:50:43;;;;;;;7.20;3.42;;;;;;;;;;4968615;28;92161;-85
2024/01/20 13:53:09;;;;;;;7.82;3.10;;;;;;;;;;4962659;28;93035;-85
2024/01/20 13:55:36;;;;;;;7.25;3.00;;;;;;;;;;4945315;28;92216;-84
2024/01/20 13:58:03;;;;;;;7.18;3.30;;;;;;;;;;4961403;28;94956;-87
2024/01/20 14:00:30;;;;;;;7.78;3.50;;;;;;;;;;4960457;28;95502;-85
2024/01/20 14:02:56;;;;;;;6.55;3.00;;;;;;;;;;4945234;28;92117;-85
2024/01/20 14:05:23;;;;;;;18.70;3.72;;;;;;;;;;4962628;28;92404;-84
2024/01/20 14:07:49;;;;;;;6.80;3.20;;;;;;;;;;4970179;28;93468;-84
2024/01/20 14:10:16;;;;;;;6.60;2.60;;;;;;;;;;4984159;28;92262;-84
2024/01/20 14:12:42;;;;;;;7.80;3.17;;;;;;;;;;4963604;28;95414;-85
2024/01/20 14:15:10;;;;;;;9.27;3.33;;;;;;;;;;4964858;28;92347;-85
2024/01/20 14:17:37;;;;;;;8.57;3.58;;;;;;;;;;4980243;28;92444;-85
2024/01/20 14:20:04;;;;;;;7.88;3.55;;;;;;;;;;4962285;28;92796;-86
2024/01/20 14:22:30;;;;;;;;;;;;;;;;;;4944570;28;92497;-87
2024/01/20 14:24:58;;;;;;;13.60;3.38;;;;;;;;;;4960247;28;113897;-86
2024/01/20 14:27:24;;;;;;;7.90;3.00;;;;;;;;;;4961176;28;95679;-86
2024/01/20 14:29:52;;;;;;;11.05;3.95;;;;;;;;;;4961444;28;92439;-87
2024/01/20 14:32:19;;;;;;;8.95;3.58;;;;;;;;;;4970677;28;92664;-86
2024/01/20 14:34:46;;;;;;;8.70;3.50;;;;;;;;;;4969720;28;92596;-86
2024/01/20 14:37:12;;;;;;;10.15;3.50;;;;;;;;;;4944697;28;92438;-86
2024/01/20 14:39:39;;;;;;;8.07;3.45;;;;;;;;;;4957191;28;94798;-87
2024/01/20 14:42:05;;;;;;;11.10;3.67;;;;;;;;;;4945054;28;91645;-86